createdAt,value
2023-08-31T00:00:45.299Z,8.30
2023-08-31T00:03:30.386Z,9.30
2023-08-31T00:05:58.306Z,7.90
2023-08-31T00:08:26.255Z,8.60
2023-08-31T00:10:58.476Z,8.20
2023-08-31T00:13:28.830Z,8.40
2023-08-31T00:15:58.532Z,11.30
2023-08-31T00:18:27.087Z,9.40
2023-08-31T00:20:55.235Z,8.30
2023-08-31T00:23:23.085Z,6.70
2023-08-31T00:25:54.971Z,8.90
2023-08-31T00:28:22.953Z,11.60
2023-08-31T00:30:51.195Z,10.80
2023-08-31T00:33:19.262Z,7.30
2023-08-31T00:35:47.818Z,11.30
2023-08-31T00:38:16.100Z,10.10
2023-08-31T00:40:46.926Z,9.60
2023-08-31T00:43:19.095Z,9.50
2023-08-31T00:45:49.988Z,10.90
2023-08-31T00:48:18.510Z,8.40
2023-08-31T00:50:47.052Z,9.20
2023-08-31T00:53:16.361Z,10.90
2023-08-31T00:55:45.838Z,8.50
2023-08-31T00:58:14.143Z,8.90
2023-08-31T01:01:01.562Z,8.40
2023-08-31T01:03:50.483Z,9.10
2023-08-31T01:06:27.483Z,8.60
2023-08-31T01:09:13.940Z,9.70
2023-08-31T01:11:46.825Z,9.90
2023-08-31T01:14:19.130Z,10.50
2023-08-31T01:16:49.675Z,13.90
2023-08-31T01:19:26.500Z,11.00
2023-08-31T01:21:56.177Z,11.30
2023-08-31T01:24:24.632Z,10.20
2023-08-31T01:26:53.663Z,14.20
2023-08-31T01:29:21.570Z,9.80
2023-08-31T01:31:49.501Z,12.60
2023-08-31T01:34:17.634Z,14.40
2023-08-31T01:36:48.596Z,12.20
2023-08-31T01:39:21.754Z,14.20
2023-08-31T01:41:52.401Z,16.30
2023-08-31T01:44:21.112Z,13.70
2023-08-31T01:46:53.777Z,13.40
2023-08-31T01:49:23.045Z,12.10
2023-08-31T01:51:51.884Z,10.30
2023-08-31T01:54:19.822Z,13.10
2023-08-31T01:56:47.901Z,13.50
2023-08-31T01:59:15.852Z,12.70
2023-08-31T02:01:43.684Z,15.00
2023-08-31T02:04:11.549Z,12.00
2023-08-31T02:06:39.561Z,14.50
2023-08-31T02:09:09.478Z,11.30
2023-08-31T02:11:39.246Z,11.60
2023-08-31T02:14:08.645Z,10.60
2023-08-31T02:16:36.559Z,10.40
2023-08-31T02:19:04.419Z,10.00
2023-08-31T02:21:32.499Z,11.70
2023-08-31T02:24:00.358Z,10.80
2023-08-31T02:26:28.327Z,11.80
2023-08-31T02:28:56.399Z,10.00
2023-08-31T02:31:24.320Z,9.30
2023-08-31T02:33:54.176Z,10.70
2023-08-31T02:36:22.149Z,9.90
2023-08-31T02:38:51.655Z,9.90
2023-08-31T02:41:19.746Z,9.70
2023-08-31T02:43:47.728Z,9.00
2023-08-31T02:46:15.822Z,11.30
2023-08-31T02:48:43.799Z,9.90
2023-08-31T02:51:11.803Z,9.20
2023-08-31T02:53:39.775Z,10.50
2023-08-31T02:56:08.602Z,11.40
2023-08-31T02:58:39.570Z,9.80
2023-08-31T03:01:12.815Z,10.80
2023-08-31T03:03:43.740Z,11.00
2023-08-31T03:06:12.320Z,12.80
2023-08-31T03:08:40.317Z,11.20
2023-08-31T03:11:09.096Z,10.30
2023-08-31T03:13:37.665Z,12.60
2023-08-31T03:16:05.768Z,10.80
2023-08-31T03:18:33.901Z,15.90
2023-08-31T03:21:01.891Z,11.00
2023-08-31T03:23:30.905Z,11.80
2023-08-31T03:25:59.069Z,13.90
2023-08-31T03:28:28.025Z,13.60
2023-08-31T03:30:57.163Z,11.70
2023-08-31T03:33:25.234Z,9.90
2023-08-31T03:35:53.318Z,12.20
2023-08-31T03:38:21.119Z,12.50
2023-08-31T03:40:59.042Z,13.20
2023-08-31T03:43:27.027Z,13.00
2023-08-31T03:45:57.105Z,16.90
2023-08-31T03:48:25.754Z,15.20
2023-08-31T03:50:54.821Z,44.90
2023-08-31T03:53:24.139Z,19.00
2023-08-31T03:55:55.308Z,19.40
2023-08-31T03:58:23.621Z,16.90
2023-08-31T04:00:53.249Z,18.70
2023-08-31T04:03:21.494Z,14.10
2023-08-31T04:05:49.825Z,15.10
2023-08-31T04:08:18.382Z,13.30
2023-08-31T04:10:46.549Z,13.90
2023-08-31T04:13:15.929Z,29.80
2023-08-31T04:15:44.056Z,28.10
2023-08-31T04:18:12.081Z,27.40
2023-08-31T04:20:40.541Z,22.60
2023-08-31T04:23:08.547Z,17.40
2023-08-31T04:25:36.554Z,15.10
2023-08-31T04:28:04.896Z,13.80
2023-08-31T04:30:33.080Z,13.00
2023-08-31T04:33:01.150Z,15.30
2023-08-31T04:35:29.222Z,14.70
2023-08-31T04:37:57.288Z,12.90
2023-08-31T04:40:28.227Z,13.60
2023-08-31T04:42:56.403Z,15.70
2023-08-31T04:45:24.321Z,15.00
2023-08-31T04:47:52.835Z,15.20
2023-08-31T04:50:21.025Z,21.00
2023-08-31T04:52:49.089Z,14.50
2023-08-31T04:55:17.170Z,12.20
2023-08-31T04:57:45.121Z,18.80
2023-08-31T05:00:13.444Z,15.30
2023-08-31T05:02:41.373Z,15.20
2023-08-31T05:05:09.671Z,13.70
2023-08-31T05:07:37.565Z,14.80
2023-08-31T05:10:06.110Z,13.80
2023-08-31T05:12:34.077Z,14.10
2023-08-31T05:15:02.572Z,14.30
2023-08-31T05:17:31.709Z,14.50
2023-08-31T05:19:59.604Z,15.20
2023-08-31T05:22:27.556Z,18.20
2023-08-31T05:24:55.593Z,22.80
2023-08-31T05:27:23.531Z,16.50
2023-08-31T05:29:51.599Z,20.40
2023-08-31T05:32:19.558Z,17.40
2023-08-31T05:34:47.395Z,13.40
2023-08-31T05:37:15.717Z,20.80
2023-08-31T05:39:43.600Z,15.80
2023-08-31T05:42:11.566Z,15.00
2023-08-31T05:44:39.522Z,13.80
2023-08-31T05:47:07.406Z,15.90
2023-08-31T05:49:35.460Z,17.80
2023-08-31T05:52:03.335Z,15.90
2023-08-31T05:54:31.322Z,17.90
2023-08-31T05:56:59.274Z,18.10
2023-08-31T05:59:27.163Z,12.80
2023-08-31T06:01:56.386Z,8.90
2023-08-31T06:04:24.521Z,10.40
2023-08-31T06:06:55.217Z,8.50
2023-08-31T06:09:23.149Z,7.90
2023-08-31T06:11:51.102Z,8.00
2023-08-31T06:14:19.142Z,7.60
2023-08-31T06:16:46.996Z,11.30
2023-08-31T06:19:16.926Z,8.10
2023-08-31T06:21:44.790Z,8.80
2023-08-31T06:24:14.395Z,8.30
2023-08-31T06:26:42.483Z,8.30
2023-08-31T06:29:12.092Z,10.00
2023-08-31T06:31:39.998Z,9.10
2023-08-31T06:34:07.850Z,7.30
2023-08-31T06:36:35.879Z,8.50
2023-08-31T06:39:05.761Z,7.80
2023-08-31T06:41:33.974Z,9.50
2023-08-31T06:44:03.069Z,8.00
2023-08-31T06:46:35.201Z,6.20
2023-08-31T06:49:03.404Z,7.10
2023-08-31T06:51:31.377Z,7.40
2023-08-31T06:54:07.188Z,7.60
2023-08-31T06:56:36.029Z,7.60
2023-08-31T06:59:04.406Z,9.00
2023-08-31T07:01:34.128Z,8.10
2023-08-31T07:04:02.088Z,8.90
2023-08-31T07:06:30.062Z,6.80
2023-08-31T07:08:58.223Z,7.60
2023-08-31T07:11:26.502Z,7.00
2023-08-31T07:13:54.771Z,6.90
2023-08-31T07:16:23.193Z,7.70
2023-08-31T07:18:51.249Z,8.50
2023-08-31T07:21:19.330Z,9.20
2023-08-31T07:23:47.237Z,10.10
2023-08-31T07:26:17.218Z,9.80
2023-08-31T07:28:45.206Z,12.90
2023-08-31T07:31:13.896Z,13.90
2023-08-31T07:33:41.936Z,16.90
2023-08-31T07:36:10.098Z,19.10
2023-08-31T07:38:37.996Z,21.00
2023-08-31T07:41:06.016Z,16.30
2023-08-31T07:43:33.917Z,12.90
2023-08-31T07:46:01.961Z,13.30
2023-08-31T07:48:29.810Z,12.00
2023-08-31T07:50:58.103Z,14.70
2023-08-31T07:53:27.463Z,8.50
2023-08-31T07:55:57.888Z,9.90
2023-08-31T07:58:27.232Z,9.30
2023-08-31T08:00:56.134Z,9.30
2023-08-31T08:03:24.646Z,7.70
2023-08-31T08:05:52.986Z,6.90
2023-08-31T08:08:21.049Z,9.30
2023-08-31T08:10:52.907Z,6.90
2023-08-31T08:13:21.000Z,7.90
2023-08-31T08:15:49.077Z,8.40
2023-08-31T08:18:17.021Z,7.00
2023-08-31T08:20:48.192Z,8.10
2023-08-31T08:23:16.172Z,8.10
2023-08-31T08:25:44.410Z,6.40
2023-08-31T08:28:14.983Z,5.50
2023-08-31T08:30:42.913Z,6.60
2023-08-31T08:33:11.667Z,5.20
2023-08-31T08:35:40.191Z,7.20
2023-08-31T08:38:08.260Z,6.20
2023-08-31T08:40:36.746Z,6.00
2023-08-31T08:43:07.463Z,8.40
2023-08-31T08:45:41.066Z,6.00
2023-08-31T08:48:10.195Z,5.80
2023-08-31T08:50:38.489Z,5.10
2023-08-31T08:53:06.631Z,5.90
2023-08-31T08:55:34.614Z,3.40
2023-08-31T08:58:02.525Z,6.00
2023-08-31T09:00:30.636Z,4.50
2023-08-31T09:02:59.256Z,3.00
2023-08-31T09:05:27.370Z,2.90
2023-08-31T09:08:05.727Z,7.50
2023-08-31T09:10:43.900Z,3.30
2023-08-31T09:13:13.304Z,4.20
2023-08-31T09:15:42.725Z,4.00
2023-08-31T09:18:20.839Z,6.80
2023-08-31T09:20:48.848Z,6.90
2023-08-31T09:23:17.474Z,5.50
2023-08-31T09:25:54.569Z,6.00
2023-08-31T09:28:29.426Z,6.30
2023-08-31T09:31:06.165Z,5.30
2023-08-31T09:33:35.386Z,6.30
2023-08-31T09:36:05.030Z,9.40
2023-08-31T09:38:33.033Z,9.00
2023-08-31T09:41:04.949Z,18.40
2023-08-31T09:43:32.917Z,17.90
2023-08-31T09:46:01.528Z,13.40
2023-08-31T09:48:30.292Z,9.30
2023-08-31T09:50:58.829Z,16.40
2023-08-31T09:53:29.622Z,9.40
2023-08-31T09:55:58.165Z,13.60
2023-08-31T09:58:26.400Z,9.50
2023-08-31T10:00:54.658Z,7.40
2023-08-31T10:03:22.789Z,5.10
2023-08-31T10:05:51.463Z,6.90
2023-08-31T10:08:20.396Z,7.30
2023-08-31T10:10:48.367Z,6.70
2023-08-31T10:13:17.627Z,5.80
2023-08-31T10:15:46.290Z,5.30
2023-08-31T10:18:14.265Z,4.60
2023-08-31T10:20:43.486Z,4.30
2023-08-31T10:23:11.864Z,3.60
2023-08-31T10:25:52.252Z,3.00
2023-08-31T10:28:21.010Z,3.80
2023-08-31T10:31:08.343Z,4.40
2023-08-31T10:33:46.030Z,9.40
2023-08-31T10:36:17.671Z,4.00
2023-08-31T10:38:47.170Z,2.80
2023-08-31T10:41:15.138Z,4.40
2023-08-31T10:43:47.972Z,3.90
2023-08-31T10:46:16.743Z,5.50
2023-08-31T10:48:51.808Z,4.10
2023-08-31T10:51:20.117Z,5.10
2023-08-31T10:53:48.055Z,4.40
2023-08-31T10:56:19.759Z,6.00
2023-08-31T10:59:01.259Z,4.20
2023-08-31T11:01:49.344Z,3.30
2023-08-31T11:04:17.471Z,7.40
2023-08-31T11:06:45.393Z,5.40
2023-08-31T11:09:20.445Z,7.50
2023-08-31T11:11:49.904Z,5.50
2023-08-31T11:14:17.936Z,3.90
2023-08-31T11:16:46.216Z,3.90
2023-08-31T11:19:14.161Z,4.90
2023-08-31T11:21:42.039Z,3.50
2023-08-31T11:24:10.313Z,3.90
2023-08-31T11:26:39.001Z,2.90
2023-08-31T11:29:07.887Z,4.50
2023-08-31T11:31:41.861Z,2.70
2023-08-31T11:34:13.358Z,2.70
2023-08-31T11:36:45.225Z,3.10
2023-08-31T11:39:18.716Z,4.50
2023-08-31T11:41:46.616Z,2.20
2023-08-31T11:44:17.106Z,1.60
2023-08-31T11:46:46.787Z,2.20
2023-08-31T11:49:14.789Z,4.40
2023-08-31T11:51:44.044Z,2.80
2023-08-31T11:54:12.508Z,4.20
2023-08-31T11:56:44.010Z,6.20
2023-08-31T11:59:14.663Z,6.70
2023-08-31T12:01:43.900Z,3.70
2023-08-31T12:04:12.831Z,4.30
2023-08-31T12:06:41.547Z,4.20
2023-08-31T12:09:10.266Z,2.70
2023-08-31T12:11:38.298Z,3.30
2023-08-31T12:14:20.301Z,2.30
2023-08-31T12:16:48.572Z,3.80
2023-08-31T12:19:17.038Z,3.10
2023-08-31T12:21:45.563Z,3.60
2023-08-31T12:24:14.206Z,3.90
2023-08-31T12:26:42.116Z,4.30
2023-08-31T12:29:10.151Z,2.10
2023-08-31T12:31:38.141Z,2.10
2023-08-31T12:34:07.467Z,3.00
2023-08-31T12:36:35.585Z,3.80
2023-08-31T12:39:07.056Z,3.00
2023-08-31T12:41:35.030Z,3.10
2023-08-31T12:44:04.856Z,5.40
2023-08-31T12:46:33.412Z,6.70
2023-08-31T12:49:02.408Z,4.10
2023-08-31T12:51:31.043Z,3.40
2023-08-31T12:53:59.292Z,5.50
2023-08-31T12:56:27.537Z,5.80
2023-08-31T12:58:55.729Z,3.30
2023-08-31T13:01:27.486Z,5.60
2023-08-31T13:03:55.427Z,2.20
2023-08-31T13:06:25.625Z,3.60
2023-08-31T13:08:54.035Z,2.20
2023-08-31T13:11:24.880Z,2.90
2023-08-31T13:13:54.093Z,2.90
2023-08-31T13:16:28.191Z,2.80
2023-08-31T13:18:56.459Z,2.30
2023-08-31T13:21:24.430Z,2.40
2023-08-31T13:23:52.402Z,1.80
2023-08-31T13:26:20.489Z,2.60
2023-08-31T13:28:48.754Z,3.50
2023-08-31T13:31:17.127Z,2.10
2023-08-31T13:33:45.292Z,3.20
2023-08-31T13:36:13.323Z,4.10
2023-08-31T13:38:41.497Z,2.50
2023-08-31T13:41:09.981Z,3.00
2023-08-31T13:43:37.954Z,2.60
2023-08-31T13:46:06.113Z,2.00
2023-08-31T13:48:34.153Z,3.10
2023-08-31T13:51:02.217Z,3.20
2023-08-31T13:53:30.203Z,10.30
2023-08-31T13:55:58.385Z,9.20
2023-08-31T13:58:27.093Z,9.40
2023-08-31T14:00:55.162Z,3.60
2023-08-31T14:03:24.570Z,3.90
2023-08-31T14:05:52.686Z,3.90
2023-08-31T14:08:20.679Z,3.20
2023-08-31T14:10:48.727Z,3.20
2023-08-31T14:13:17.352Z,2.70
2023-08-31T14:15:47.286Z,2.10
2023-08-31T14:18:15.874Z,3.10
2023-08-31T14:20:44.421Z,3.50
2023-08-31T14:23:12.742Z,3.20
2023-08-31T14:25:40.792Z,1.90
2023-08-31T14:28:09.030Z,2.80
2023-08-31T14:30:38.267Z,3.60
2023-08-31T14:33:06.474Z,4.70
2023-08-31T14:35:38.309Z,5.80
2023-08-31T14:38:06.499Z,4.30
2023-08-31T14:40:36.525Z,3.10
2023-08-31T14:43:04.722Z,2.10
2023-08-31T14:45:32.729Z,3.20
2023-08-31T14:48:00.800Z,2.30
2023-08-31T14:50:28.883Z,2.40
2023-08-31T14:52:57.016Z,2.80
2023-08-31T14:55:26.340Z,3.10
2023-08-31T14:57:54.365Z,2.50
2023-08-31T15:00:22.523Z,1.90
2023-08-31T15:02:50.594Z,2.70
2023-08-31T15:05:18.782Z,2.10
2023-08-31T15:07:46.788Z,1.90
2023-08-31T15:10:14.817Z,2.50
2023-08-31T15:12:42.771Z,2.50
2023-08-31T15:15:11.068Z,3.90
2023-08-31T15:17:39.072Z,1.80
2023-08-31T15:20:09.792Z,4.90
2023-08-31T15:22:37.846Z,2.30
2023-08-31T15:25:06.682Z,2.60
2023-08-31T15:27:34.800Z,2.40
2023-08-31T15:30:04.288Z,2.20
2023-08-31T15:32:32.782Z,2.10
2023-08-31T15:35:00.990Z,3.20
2023-08-31T15:37:28.963Z,2.90
2023-08-31T15:39:58.291Z,4.60
2023-08-31T15:42:27.053Z,9.90
2023-08-31T15:44:57.011Z,6.30
2023-08-31T15:47:25.435Z,6.40
2023-08-31T15:49:53.960Z,2.80
2023-08-31T15:52:21.994Z,5.00
2023-08-31T15:54:50.021Z,5.80
2023-08-31T15:57:18.087Z,3.30
2023-08-31T15:59:48.892Z,3.60
2023-08-31T16:02:17.039Z,8.00
2023-08-31T16:04:48.316Z,6.40
2023-08-31T16:09:44.464Z,4.40
2023-08-31T16:12:12.688Z,5.90
2023-08-31T16:14:40.781Z,6.40
2023-08-31T16:17:09.003Z,2.80
2023-08-31T16:19:37.001Z,5.90
2023-08-31T16:22:05.828Z,7.60
2023-08-31T16:24:33.926Z,7.70
2023-08-31T16:27:01.949Z,9.20
2023-08-31T16:29:30.138Z,7.10
2023-08-31T16:31:58.290Z,6.60
2023-08-31T16:34:26.675Z,9.00
2023-08-31T16:36:54.682Z,9.20
2023-08-31T16:39:22.934Z,7.60
2023-08-31T16:41:52.075Z,7.10
2023-08-31T16:44:20.639Z,8.30
2023-08-31T16:46:48.658Z,4.40
2023-08-31T16:49:16.763Z,6.90
2023-08-31T16:51:44.832Z,9.10
2023-08-31T16:54:13.239Z,5.70
2023-08-31T16:56:41.358Z,6.00
2023-08-31T16:59:09.348Z,9.80
2023-08-31T17:01:37.442Z,3.90
2023-08-31T17:04:05.713Z,10.70
2023-08-31T17:06:33.881Z,3.60
2023-08-31T17:09:05.199Z,4.80
2023-08-31T17:11:35.103Z,7.20
2023-08-31T17:14:05.679Z,11.20
2023-08-31T17:16:34.057Z,9.00
2023-08-31T17:19:02.417Z,5.10
2023-08-31T17:21:30.383Z,8.20
2023-08-31T17:23:58.644Z,8.40
2023-08-31T17:26:27.242Z,6.40
2023-08-31T17:28:55.208Z,7.90
2023-08-31T17:31:23.307Z,7.50
2023-08-31T17:33:53.052Z,6.10
2023-08-31T17:36:21.390Z,7.30
2023-08-31T17:38:49.427Z,8.20
2023-08-31T17:41:17.607Z,6.90
2023-08-31T17:43:46.036Z,5.30
2023-08-31T17:46:14.246Z,5.40
2023-08-31T17:48:45.858Z,5.20
2023-08-31T17:51:14.567Z,5.40
2023-08-31T17:53:42.671Z,10.70
2023-08-31T17:56:10.854Z,6.20
2023-08-31T17:58:39.025Z,6.00
2023-08-31T18:01:07.107Z,3.20
2023-08-31T18:03:35.838Z,4.20
2023-08-31T18:06:04.234Z,3.90
2023-08-31T18:08:34.635Z,5.20
2023-08-31T18:11:02.881Z,4.70
2023-08-31T18:13:31.234Z,6.30
2023-08-31T18:15:59.478Z,4.60
2023-08-31T18:18:30.331Z,3.30
2023-08-31T18:20:58.991Z,4.00
2023-08-31T18:23:28.092Z,4.20
2023-08-31T18:25:56.726Z,6.60
2023-08-31T18:28:24.850Z,5.50
2023-08-31T18:30:57.170Z,7.50
2023-08-31T18:33:25.757Z,5.30
2023-08-31T18:35:55.249Z,6.50
2023-08-31T18:38:25.275Z,11.40
2023-08-31T18:40:54.174Z,5.70
2023-08-31T18:43:22.890Z,8.20
2023-08-31T18:45:51.548Z,5.80
2023-08-31T18:48:19.830Z,9.10
2023-08-31T18:50:47.805Z,10.90
2023-08-31T18:53:16.256Z,6.80
2023-08-31T18:55:44.442Z,9.00
2023-08-31T18:58:13.793Z,6.50
2023-08-31T19:00:42.136Z,6.40
2023-08-31T19:03:10.192Z,8.60
2023-08-31T19:05:39.101Z,5.10
2023-08-31T19:08:09.295Z,5.30
2023-08-31T19:13:08.639Z,5.10
2023-08-31T19:15:37.246Z,7.50
2023-08-31T19:18:07.752Z,5.80
2023-08-31T19:20:36.530Z,7.70
2023-08-31T19:23:05.044Z,6.80
2023-08-31T19:25:33.192Z,6.50
2023-08-31T19:28:01.881Z,6.00
2023-08-31T19:30:30.739Z,8.20
2023-08-31T19:32:59.087Z,6.50
2023-08-31T19:37:58.754Z,6.70
2023-08-31T19:40:26.853Z,12.60
2023-08-31T19:42:54.857Z,9.00
2023-08-31T19:45:22.986Z,7.00
2023-08-31T19:47:52.871Z,10.20
2023-08-31T19:50:24.125Z,8.60
2023-08-31T19:52:52.602Z,8.90
2023-08-31T19:55:20.704Z,10.10
2023-08-31T19:57:48.852Z,8.60
2023-08-31T20:00:23.541Z,11.90
2023-08-31T20:02:52.601Z,6.80
2023-08-31T20:05:22.591Z,8.80
2023-08-31T20:07:51.584Z,6.90
2023-08-31T20:10:20.570Z,6.80
2023-08-31T20:12:49.062Z,6.70
2023-08-31T20:15:17.232Z,4.90
2023-08-31T20:17:45.584Z,6.50
2023-08-31T20:20:14.638Z,4.60
2023-08-31T20:22:42.879Z,5.90
2023-08-31T20:25:11.262Z,4.40
2023-08-31T20:27:39.537Z,3.70
2023-08-31T20:30:08.216Z,6.10
2023-08-31T20:32:38.034Z,6.30
2023-08-31T20:35:07.862Z,5.70
2023-08-31T20:37:36.042Z,3.30
2023-08-31T20:40:10.014Z,3.80
2023-08-31T20:42:38.126Z,5.80
2023-08-31T20:45:06.774Z,6.80
2023-08-31T20:47:34.805Z,5.60
2023-08-31T20:50:05.488Z,6.10
2023-08-31T20:52:34.800Z,4.20
2023-08-31T20:55:05.108Z,6.70
2023-08-31T20:57:33.095Z,6.80
2023-08-31T21:00:01.048Z,3.70
2023-08-31T21:02:29.253Z,6.80
2023-08-31T21:04:59.858Z,5.70
2023-08-31T21:07:28.030Z,5.40
2023-08-31T21:09:56.037Z,4.70
2023-08-31T21:12:24.695Z,3.20
2023-08-31T21:14:52.833Z,4.10
2023-08-31T21:17:21.034Z,6.60
2023-08-31T21:19:49.527Z,4.70
2023-08-31T21:22:17.556Z,6.10
2023-08-31T21:24:45.976Z,5.30
2023-08-31T21:27:14.036Z,3.60
2023-08-31T21:29:42.247Z,4.60
2023-08-31T21:32:10.390Z,3.90
2023-08-31T21:34:38.384Z,5.90
2023-08-31T21:37:06.731Z,5.90
2023-08-31T21:39:34.804Z,5.40
2023-08-31T21:42:02.977Z,5.50
2023-08-31T21:44:31.085Z,5.50
2023-08-31T21:46:59.224Z,4.90
2023-08-31T21:49:27.394Z,4.10
2023-08-31T21:51:55.468Z,7.70
2023-08-31T21:54:23.741Z,6.30
2023-08-31T21:56:52.025Z,4.40
2023-08-31T21:59:20.303Z,6.20
2023-08-31T22:01:48.615Z,5.20
2023-08-31T22:04:18.385Z,6.40
2023-08-31T22:06:49.232Z,6.30
2023-08-31T22:09:17.910Z,5.00
2023-08-31T22:11:48.128Z,4.70
2023-08-31T22:14:16.406Z,4.70
2023-08-31T22:16:45.366Z,4.40
2023-08-31T22:19:14.004Z,5.30
2023-08-31T22:21:42.117Z,8.00
2023-08-31T22:24:10.338Z,5.70
2023-08-31T22:26:38.532Z,6.60
2023-08-31T22:29:06.881Z,11.30
2023-08-31T22:31:35.179Z,6.90
2023-08-31T22:34:04.153Z,5.30
2023-08-31T22:36:32.433Z,7.90
2023-08-31T22:39:00.618Z,12.00
2023-08-31T22:41:28.982Z,7.70
2023-08-31T22:43:57.506Z,5.40
2023-08-31T22:46:25.850Z,6.60
2023-08-31T22:48:54.654Z,7.00
2023-08-31T22:51:23.218Z,7.20
2023-08-31T22:53:51.312Z,9.60
2023-08-31T22:56:19.457Z,5.80
2023-08-31T22:58:47.635Z,5.20
2023-08-31T23:01:15.825Z,5.00
2023-08-31T23:03:43.999Z,5.90
2023-08-31T23:06:12.255Z,5.10
2023-08-31T23:08:41.143Z,6.20
2023-08-31T23:11:10.657Z,6.10
2023-08-31T23:13:38.830Z,6.90
2023-08-31T23:16:07.750Z,5.20
2023-08-31T23:18:36.300Z,5.70
2023-08-31T23:21:08.300Z,5.40
2023-08-31T23:23:36.954Z,6.10
2023-08-31T23:26:05.131Z,6.50
2023-08-31T23:28:33.707Z,4.30
2023-08-31T23:31:01.990Z,5.60
2023-08-31T23:33:30.257Z,4.10
2023-08-31T23:35:58.430Z,3.80
2023-08-31T23:38:26.706Z,4.50
2023-08-31T23:40:57.965Z,4.80
2023-08-31T23:45:55.229Z,4.50
2023-08-31T23:48:23.508Z,3.90
2023-08-31T23:50:51.713Z,4.20
2023-08-31T23:53:19.962Z,3.10
2023-08-31T23:55:50.069Z,4.40
2023-08-31T23:58:18.558Z,4.60
